Time;durP1;ratioP1;P1;durP2;ratioP2;P2;SDS_P1;SDS_P2;PMS_P1;PMS_P2;Temp;Humidity;BMP_temperature;BMP_pressure;BME280_temperature;BME280_humidity;BME280_pressure;Samples;Min_cycle;Max_cycle;Signal;HPM_P1;HPM_P2
2023/01/15 00:01:18;;;;;;;;;;;;;;;6.42;100.00;98142.00;5033541;28;20283;-84
2023/01/15 00:03:43;;;;;;;;;;;;;;;6.49;100.00;98153.03;5033324;28;19959;-84
2023/01/15 00:06:08;;;;;;;;;;;;;;;6.60;100.00;98155.13;5033996;28;19917;-89
2023/01/15 00:11:09;;;;;;;;;;;;;;;6.80;100.00;98165.44;5274038;23;19979;-86
2023/01/15 00:13:34;;;;;;;;;;;;;;;6.89;100.00;98166.72;5015814;28;20368;-86
2023/01/15 00:16:10;;;;;;;;;;;;;;;6.96;100.00;98167.28;5024454;28;19918;-87
2023/01/15 00:18:36;;;;;;;;;;;;;;;7.03;100.00;98179.16;5033738;28;19921;-86
2023/01/15 00:21:05;;;;;;;;;;;;;;;7.09;100.00;98184.09;5035660;28;19923;-86
2023/01/15 00:29:00;;;;;;;;;;;;;;;7.28;100.00;98200.59;5034983;28;20020;-88
2023/01/15 00:31:26;;;;;;;;;;;;;;;7.33;100.00;98192.44;5016978;28;19952;-85
2023/01/15 00:33:51;;;;;;;;;;;;;;;7.39;100.00;98196.53;5036913;28;19917;-89
2023/01/15 00:36:17;;;;;;;;;;;;;;;7.42;100.00;98193.75;5033606;28;19921;-84
2023/01/15 00:38:42;;;;;;;;;;;;;;;7.46;100.00;98206.63;5015628;28;20352;-87
2023/01/15 00:41:07;;;;;;;;;;;;;;;7.49;100.00;98204.78;5031769;28;19917;-85
2023/01/15 00:43:32;;;;;;;;;;;;;;;7.50;100.00;98193.28;5033018;28;20384;-88
2023/01/15 00:45:58;;;;;;;;;;;;;;;7.56;100.00;98198.22;5016218;28;19917;-84
2023/01/15 00:48:23;;;;;;;;;;;;;;;7.58;100.00;98193.72;5034200;28;19918;-92
2023/01/15 00:50:48;;;;;;;;;;;;;;;7.60;100.00;98187.41;5016296;28;20338;-90
2023/01/15 00:53:13;;;;;;;;;;;;;;;7.67;100.00;98190.56;4991901;28;19918;-87
2023/01/15 00:55:39;;;;;;;;;;;;;;;7.66;100.00;98191.50;4992031;28;20020;-87
2023/01/15 00:58:24;;;;;;;;;;;;;;;7.69;100.00;98193.09;4992289;28;20234;-91
2023/01/15 01:01:05;;;;;;;;;;;;;;;7.73;100.00;98202.56;4981656;28;19933;-88
2023/01/15 01:03:30;;;;;;;;;;;;;;;7.80;100.00;98210.03;4977557;28;19917;-88
2023/01/15 01:06:01;;;;;;;;;;;;;;;7.87;100.00;98212.34;4979345;28;19969;-90
2023/01/15 01:08:26;;;;;;;;;;;;;;;7.90;100.00;98207.72;5008460;28;20052;-90
2023/01/15 01:11:01;;;;;;;;;;;;;;;7.96;100.00;98203.88;5013894;28;20392;-86
2023/01/15 01:13:27;;;;;;;;;;;;;;;8.06;100.00;98214.75;5014779;28;19964;-88
2023/01/15 01:15:52;;;;;;;;;;;;;;;8.13;100.00;98224.84;5014729;28;19917;-85
2023/01/15 01:18:17;;;;;;;;;;;;;;;8.18;100.00;98222.81;5014600;28;19918;-84
2023/01/15 01:20:42;;;;;;;;;;;;;;;8.25;100.00;98217.16;5015317;28;19933;-84
2023/01/15 01:23:08;;;;;;;;;;;;;;;8.29;100.00;98218.69;5015994;28;19922;-84
2023/01/15 01:25:33;;;;;;;;;;;;;;;8.33;100.00;98225.50;5035369;28;19956;-86
2023/01/15 01:27:58;;;;;;;;;;;;;;;8.35;100.00;98229.75;5039135;28;20398;-85
2023/01/15 01:30:23;;;;;;;;;;;;;;;8.41;100.00;98227.69;5038491;28;20292;-84
2023/01/15 01:32:49;;;;;;;;;;;;;;;7.71;100.00;98230.81;5019128;28;20003;-85
2023/01/15 01:35:14;;;;;;;;;;;;;;;7.37;100.00;98238.78;5036298;28;19917;-85
2023/01/15 01:37:39;;;;;;;;;;;;;;;7.12;100.00;98247.16;5018990;28;20323;-88
2023/01/15 01:40:05;;;;;;;;;;;;;;;7.01;100.00;98249.50;5036064;28;19936;-86
2023/01/15 01:42:30;;;;;;;;;;;;;;;6.88;100.00;98247.50;5019776;28;19939;-87
2023/01/15 01:45:18;;;;;;;;;;;;;;;6.78;100.00;98250.69;5018513;28;19921;-88
2023/01/15 01:47:44;;;;;;;;;;;;;;;6.76;100.00;98260.47;5012862;28;19963;-84
2023/01/15 03:18:26;;;;;;;;;;;;;;;5.74;100.00;98365.28;5250921;23;20363;-89
2023/01/15 03:20:55;;;;;;;;;;;;;;;5.71;100.00;98362.81;5036586;28;19921;-89
2023/01/15 03:26:15;;;;;;;;;;;;;;;5.66;100.00;98367.41;5043269;28;19925;-90
2023/01/15 03:28:42;;;;;;;;;;;;;;;5.69;100.00;98383.06;5035887;28;19917;-90
2023/01/15 03:31:19;;;;;;;;;;;;;;;5.67;100.00;98395.41;5036513;28;19951;-92
2023/01/15 03:33:44;;;;;;;;;;;;;;;5.68;100.00;98392.72;5053974;28;19936;-90
2023/01/15 03:36:11;;;;;;;;;;;;;;;5.63;100.00;98378.91;5036118;28;20031;-89
2023/01/15 03:38:37;;;;;;;;;;;;;;;5.62;100.00;98382.47;5036103;28;20011;-89
2023/01/15 03:41:02;;;;;;;;;;;;;;;5.58;100.00;98386.16;5036110;28;19917;-89
2023/01/15 03:43:46;;;;;;;;;;;;;;;5.56;100.00;98383.59;5053890;28;19920;-89
2023/01/15 03:46:32;;;;;;;;;;;;;;;5.69;100.00;98380.44;5053464;28;20083;-90
2023/01/15 03:49:15;;;;;;;;;;;;;;;5.58;100.00;98384.38;5035324;28;19925;-88
2023/01/15 03:52:05;;;;;;;;;;;;;;;5.56;100.00;98372.25;5035957;28;19952;-90
2023/01/15 03:54:51;;;;;;;;;;;;;;;5.57;100.00;98374.81;5035871;28;19917;-89
2023/01/15 03:57:25;;;;;;;;;;;;;;;5.53;100.00;98367.97;5035466;28;20360;-90
2023/01/15 04:00:21;;;;;;;;;;;;;;;;;;;;;
2023/01/15 04:02:51;;;;;;;;;;;;;;;5.56;100.00;98377.50;4990955;28;19914;-90
2023/01/15 04:05:28;;;;;;;;;;;;;;;5.54;100.00;98381.97;5031710;28;19917;-91
2023/01/15 04:07:53;;;;;;;;;;;;;;;5.54;100.00;98388.06;5053802;28;19996;-85
2023/01/15 04:10:43;;;;;;;;;;;;;;;5.57;100.00;98395.81;5053881;28;20004;-92
2023/01/15 04:13:26;;;;;;;;;;;;;;;;;;;;;
2023/01/15 04:18:58;;;;;;;;;;;;;;;5.56;100.00;98415.13;5010480;28;19929;-93
2023/01/15 04:21:59;;;;;;;;;;;;;;;;;;;;;
2023/01/15 04:24:55;;;;;;;;;;;;;;;;;;;;;
2023/01/15 04:27:37;;;;;;;;;;;;;;;5.49;100.00;98387.44;5011661;28;19917;-90
2023/01/15 04:30:02;;;;;;;;;;;;;;;5.49;100.00;98387.44;5033145;28;19917;-89
2023/01/15 04:32:27;;;;;;;;;;;;;;;5.50;100.00;98383.88;5030673;28;20339;-87
2023/01/15 04:34:52;;;;;;;;;;;;;;;5.50;100.00;98389.13;5033244;28;19913;-88
2023/01/15 04:37:18;;;;;;;;;;;;;;;5.39;100.00;98397.50;5033146;28;20004;-88
2023/01/15 04:39:43;;;;;;;;;;;;;;;5.49;100.00;98399.69;5032903;28;19971;-91
2023/01/15 04:44:56;;;;;;;;;;;;;;;5.48;100.00;98409.38;5032948;28;19924;-91
2023/01/15 04:47:22;;;;;;;;;;;;;;;5.51;100.00;98426.78;5031770;28;19939;-90
2023/01/15 04:49:47;;;;;;;;;;;;;;;5.45;100.00;98425.25;5033095;28;20288;-88
2023/01/15 04:52:13;;;;;;;;;;;;;;;5.43;100.00;98427.09;5033155;28;19956;-87
2023/01/15 04:54:39;;;;;;;;;;;;;;;5.39;100.00;98425.53;5033319;28;19917;-88
2023/01/15 04:57:04;;;;;;;;;;;;;;;5.34;100.00;98428.34;5032982;28;20423;-89
2023/01/15 04:59:29;;;;;;;;;;;;;;;5.38;100.00;98435.19;5032941;28;20300;-88
2023/01/15 05:01:54;;;;;;;;;;;;;;;5.40;100.00;98422.00;5031656;28;19947;-88
2023/01/15 05:04:20;;;;;;;;;;;;;;;5.38;100.00;98416.78;5031750;28;19923;-87
2023/01/15 05:06:45;;;;;;;;;;;;;;;5.41;100.00;98427.19;5032900;28;19920;-88
2023/01/15 05:09:10;;;;;;;;;;;;;;;5.35;100.00;98422.19;5032973;28;19928;-88
2023/01/15 05:11:39;;;;;;;;;;;;;;;5.35;100.00;98423.97;5033034;28;19917;-90
2023/01/15 05:16:51;;;;;;;;;;;;;;;5.30;100.00;98413.66;5018927;28;19975;-92
2023/01/15 05:19:16;;;;;;;;;;;;;;;5.30;100.00;98407.53;5030466;28;19956;-91
2023/01/15 05:21:45;;;;;;;;;;;;;;;5.30;100.00;98415.41;5030538;28;20268;-92
2023/01/15 05:24:14;;;;;;;;;;;;;;;5.34;100.00;98419.63;5014001;28;19917;-92
2023/01/15 13:55:19;;;;;;;;;;;;;;;6.70;100.00;98780.19;4973197;28;20300;-86
2023/01/15 13:57:44;;;;;;;;;;;;;;;6.61;100.00;98772.72;4959957;28;19969;-84
2023/01/15 14:00:28;;;;;;;;;;;;;;;6.61;100.00;98768.31;4977311;28;19918;-87
2023/01/15 14:03:13;;;;;;;;;;;;;;;6.62;100.00;98770.03;4977348;28;19941;-85
2023/01/15 14:05:38;;;;;;;;;;;;;;;6.59;100.00;98778.06;4990855;28;19984;-85
2023/01/15 14:08:14;;;;;;;;;;;;;;;6.62;100.00;98775.28;4975744;28;19950;-89
2023/01/15 14:10:39;;;;;;;;;;;;;;;6.60;100.00;98771.84;4976431;28;19918;-88
2023/01/15 14:13:04;;;;;;;;;;;;;;;6.62;100.00;98769.16;4977098;28;20021;-89
2023/01/15 14:15:59;;;;;;;;;;;;;;;6.63;100.00;98766.44;4959557;28;20345;-92
2023/01/15 14:18:41;;;;;;;;;;;;;;;6.65;100.00;98772.53;4968027;28;20021;-88
2023/01/15 14:21:18;;;;;;;;;;;;;;;6.79;100.00;98771.06;4991858;28;19922;-86
2023/01/15 14:23:56;;;;;;;;;;;;;;;6.78;100.00;98769.34;4958447;28;19923;-90
2023/01/15 14:26:26;;;;;;;;;;;;;;;6.73;100.00;98783.59;4959370;28;19988;-86
2023/01/15 14:29:01;;;;;;;;;;;;;;;6.70;100.00;98778.44;4970645;28;19914;-88
2023/01/15 14:31:27;;;;;;;;;;;;;;;6.70;100.00;98788.97;4991660;28;20380;-85
2023/01/15 14:34:04;;;;;;;;;;;;;;;6.73;100.00;98786.22;4977030;28;19914;-92
2023/01/15 14:36:34;;;;;;;;;;;;;;;6.80;100.00;98788.59;4977133;28;19929;-89
2023/01/15 14:39:01;;;;;;;;;;;;;;;6.82;100.00;98777.03;4985616;28;19918;-85
2023/01/15 14:41:28;;;;;;;;;;;;;;;6.88;100.00;98781.19;4976920;28;19918;-93
2023/01/15 14:43:54;;;;;;;;;;;;;;;6.86;100.00;98777.75;4985479;28;19914;-83
2023/01/15 14:46:32;;;;;;;;;;;;;;;6.87;100.00;98779.47;4976389;28;19918;-85
2023/01/15 14:48:58;;;;;;;;;;;;;;;6.88;100.00;98779.41;4976390;28;19918;-89
2023/01/15 14:51:27;;;;;;;;;;;;;;;6.88;100.00;98781.19;4990511;28;21245;-90
2023/01/15 14:53:52;;;;;;;;;;;;;;;6.88;100.00;98789.09;4989964;28;19981;-87
2023/01/15 14:56:19;;;;;;;;;;;;;;;6.86;100.00;98781.25;4959238;28;19922;-87
2023/01/15 14:58:50;;;;;;;;;;;;;;;6.91;100.00;98768.75;4976355;28;19968;-88
2023/01/15 15:01:20;;;;;;;;;;;;;;;6.91;100.00;98767.91;4959338;28;19919;-90
2023/01/15 15:03:51;;;;;;;;;;;;;;;6.99;100.00;98773.69;4991394;28;19922;-88
2023/01/15 15:06:17;;;;;;;;;;;;;;;6.93;100.00;98789.75;4975922;28;19926;-86
2023/01/15 15:08:43;;;;;;;;;;;;;;;6.92;100.00;98785.41;4975269;28;19919;-84
2023/01/15 15:12:17;;;;;;;;;;;;;;;6.97;100.00;98783.41;4976100;28;20010;-87
2023/01/15 15:14:00;;;;;;;;;;;;;;;7.00;100.00;98796.44;4975649;28;20377;-83
2023/01/15 15:16:27;;;;;;;;;;;;;;;7.02;100.00;98804.28;4958272;28;19918;-88
2023/01/15 15:19:01;;;;;;;;;;;;;;;7.02;100.00;98802.53;4975736;28;19945;-88
2023/01/15 15:21:28;;;;;;;;;;;;;;;6.97;100.00;98793.09;4975834;28;19918;-88
2023/01/15 15:24:14;;;;;;;;;;;;;;;6.99;100.00;98794.75;4974440;28;19922;-91
2023/01/15 15:26:39;;;;;;;;;;;;;;;7.01;100.00;98785.00;4973976;28;19925;-89
2023/01/15 15:29:08;;;;;;;;;;;;;;;7.10;100.00;98791.66;4975751;28;19918;-86
2023/01/15 15:31:35;;;;;;;;;;;;;;;7.11;100.00;98789.88;4975596;28;20358;-88
2023/01/15 15:34:00;;;;;;;;;;;;;;;7.07;100.00;98790.00;4958211;28;19925;-87
2023/01/15 15:36:30;;;;;;;;;;;;;;;7.12;100.00;98788.94;4958483;28;19934;-92
2023/01/15 15:39:02;;;;;;;;;;;;;;;7.07;100.00;98791.78;4989145;28;19919;-88
2023/01/15 15:50:05;;;;;;;;;;;;;;;7.11;100.00;98774.91;4975637;28;19974;-85
2023/01/15 15:52:32;;;;;;;;;;;;;;;7.13;100.00;98772.19;4956571;28;19922;-86
2023/01/15 15:54:58;;;;;;;;;;;;;;;7.14;100.00;98760.75;4975046;28;19926;-87
2023/01/15 15:57:24;;;;;;;;;;;;;;;7.12;100.00;98757.34;4990106;28;19928;-83
2023/01/15 15:59:51;;;;;;;;;;;;;;;7.11;100.00;98760.88;4975144;28;20030;-90
2023/01/15 16:02:32;;;;;;;;;;;;;;;7.20;100.00;98776.28;4957767;28;19918;-88
2023/01/15 16:04:59;;;;;;;;;;;;;;;7.19;100.00;98782.47;4990071;28;20376;-88
2023/01/15 16:07:25;;;;;;;;;;;;;;;7.17;100.00;98792.22;4988610;28;19914;-88
2023/01/15 16:09:53;;;;;;;;;;;;;;;7.19;100.00;98785.09;4957649;28;19918;-86
2023/01/15 16:12:20;;;;;;;;;;;;;;;7.20;100.00;98787.66;4989819;28;19914;-88
2023/01/15 16:14:45;;;;;;;;;;;;;;;7.23;100.00;98781.41;4957398;28;19972;-87
2023/01/15 16:20:00;;;;;;;;;;;;;;;7.26;100.00;98776.84;4974166;28;19919;-84
2023/01/15 16:22:25;;;;;;;;;;;;;;;7.28;100.00;98763.63;4973437;28;19972;-87
2023/01/15 16:24:57;;;;;;;;;;;;;;;7.27;100.00;98770.66;4974695;28;20004;-92
2023/01/15 16:27:25;;;;;;;;;;;;;;;7.27;100.00;98772.44;4957760;28;19918;-88
2023/01/15 16:29:52;;;;;;;;;;;;;;;7.28;100.00;98768.88;4974662;28;20004;-87
2023/01/15 16:32:48;;;;;;;;;;;;;;;7.27;100.00;98767.16;4975264;28;19926;-96
2023/01/15 16:35:18;;;;;;;;;;;;;;;7.32;100.00;98765.16;4966070;28;19918;-88
2023/01/15 16:37:48;;;;;;;;;;;;;;;7.33;100.00;98766.03;4988538;28;20135;-88
2023/01/15 16:40:36;;;;;;;;;;;;;;;7.30;100.00;98760.91;4989488;28;19925;-91
2023/01/15 16:43:04;;;;;;;;;;;;;;;7.33;100.00;98766.88;4967917;28;19960;-92
2023/01/15 16:45:29;;;;;;;;;;;;;;;7.32;100.00;98759.06;4989387;28;20309;-89
2023/01/15 16:48:07;;;;;;;;;;;;;;;7.32;100.00;98764.31;4957192;28;19925;-88
2023/01/15 16:50:33;;;;;;;;;;;;;;;7.33;100.00;98763.41;4974428;28;19918;-87
2023/01/15 16:53:03;;;;;;;;;;;;;;;7.34;100.00;98754.56;4987869;28;19925;-86
2023/01/15 16:55:34;;;;;;;;;;;;;;;7.37;100.00;98757.94;4974256;28;19918;-87
2023/01/15 16:58:11;;;;;;;;;;;;;;;7.40;100.00;98755.16;4974416;28;19941;-89
2023/01/15 17:00:38;;;;;;;;;;;;;;;7.40;100.00;98747.25;4974115;28;19922;-83
2023/01/15 17:03:09;;;;;;;;;;;;;;;7.50;100.00;98744.16;4975000;28;19926;-88
2023/01/15 17:05:35;;;;;;;;;;;;;;;7.45;100.00;98747.88;4974355;28;20428;-88
2023/01/15 17:08:01;;;;;;;;;;;;;;;7.43;100.00;98741.81;4972516;28;19933;-84
2023/01/15 17:10:30;;;;;;;;;;;;;;;7.45;100.00;98761.06;4970669;28;19922;-88
2023/01/15 17:12:55;;;;;;;;;;;;;;;7.52;100.00;98753.72;4973098;28;19941;-85
2023/01/15 17:15:26;;;;;;;;;;;;;;;7.52;100.00;98750.22;4971160;28;20354;-91
2023/01/15 17:17:53;;;;;;;;;;;;;;;7.53;100.00;98746.66;4974040;28;19919;-84
2023/01/15 17:20:19;;;;;;;;;;;;;;;7.51;100.00;98751.16;4972689;28;19946;-83
2023/01/15 17:22:46;;;;;;;;;;;;;;;7.54;100.00;98758.91;5001756;28;19957;-87
2023/01/15 17:25:22;;;;;;;;;;;;;;;7.53;100.00;98749.28;4970833;28;19925;-89
2023/01/15 17:27:47;;;;;;;;;;;;;;;7.53;100.00;98749.28;4972960;28;19929;-94
2023/01/15 17:30:21;;;;;;;;;;;;;;;7.56;100.00;98749.16;4960426;28;19922;-86
2023/01/15 17:32:46;;;;;;;;;;;;;;;7.55;100.00;98750.09;4954488;28;19918;-86
2023/01/15 17:35:26;;;;;;;;;;;;;;;7.57;100.00;98749.06;4973230;28;19925;-88
2023/01/15 17:37:51;;;;;;;;;;;;;;;7.57;100.00;98738.53;4970814;28;20010;-87
2023/01/15 17:40:16;;;;;;;;;;;;;;;7.60;100.00;98750.72;4973199;28;19958;-86
2023/01/15 17:42:41;;;;;;;;;;;;;;;7.65;100.00;98748.72;4973163;28;19918;-86
2023/01/15 17:45:18;;;;;;;;;;;;;;;7.67;100.00;98738.94;4972843;28;19919;-89
2023/01/15 17:47:43;;;;;;;;;;;;;;;7.64;100.00;98739.97;4984856;28;19929;-88
2023/01/15 17:50:09;;;;;;;;;;;;;;;7.64;100.00;98733.81;4976960;28;20012;-88
2023/01/15 17:52:34;;;;;;;;;;;;;;;7.68;100.00;98730.13;4975334;28;19918;-83
2023/01/15 18:06:01;;;;;;;;;;;;;;;7.78;100.00;98728.72;4976432;28;19921;-87
2023/01/15 18:08:28;;;;;;;;;;;;;;;7.81;100.00;98727.75;4975463;28;19918;-89
2023/01/15 18:10:53;;;;;;;;;;;;;;;7.78;100.00;98720.81;4991647;28;19922;-89
2023/01/15 18:13:18;;;;;;;;;;;;;;;7.85;100.00;98720.53;4976303;28;19926;-86
2023/01/15 18:15:44;;;;;;;;;;;;;;;7.82;100.00;98718.91;4976135;28;20357;-89
2023/01/15 18:18:10;;;;;;;;;;;;;;;7.81;100.00;98712.75;4976242;28;20396;-90
2023/01/15 18:20:35;;;;;;;;;;;;;;;7.84;100.00;98708.28;5007401;28;19918;-84
2023/01/15 18:23:00;;;;;;;;;;;;;;;7.85;100.00;98712.63;4989907;28;19957;-85
2023/01/15 18:25:33;;;;;;;;;;;;;;;7.84;100.00;98710.94;4976243;28;19945;-90
2023/01/15 18:27:58;;;;;;;;;;;;;;;7.84;100.00;98718.84;4982149;28;19950;-85
2023/01/15 18:30:23;;;;;;;;;;;;;;;7.86;100.00;98723.09;4970632;28;19922;-83
2023/01/15 18:32:48;;;;;;;;;;;;;;;7.85;100.00;98709.97;4975139;28;19922;-85
2023/01/15 18:35:14;;;;;;;;;;;;;;;7.86;100.00;98695.88;4975108;28;19922;-89
2023/01/15 18:37:39;;;;;;;;;;;;;;;7.86;100.00;98696.72;4976162;28;20293;-85
2023/01/15 18:40:05;;;;;;;;;;;;;;;7.86;100.00;98680.06;4973925;28;20365;-85
2023/01/15 18:48:02;;;;;;;;;;;;;;;7.88;100.00;98676.41;4979415;28;19946;-89
2023/01/15 18:50:27;;;;;;;;;;;;;;;7.89;100.00;98670.19;4975429;28;19937;-90
2023/01/15 18:52:53;;;;;;;;;;;;;;;7.89;100.00;98670.19;4973980;28;19926;-90
2023/01/15 18:55:25;;;;;;;;;;;;;;;7.90;100.00;98671.91;4959589;28;19929;-86
2023/01/15 18:57:51;;;;;;;;;;;;;;;7.91;100.00;98659.56;4975152;28;19925;-90
2023/01/15 19:00:17;;;;;;;;;;;;;;;7.93;100.00;98657.69;4974104;28;19922;-91
2023/01/15 19:02:43;;;;;;;;;;;;;;;7.92;100.00;98658.66;4974603;28;19921;-92
2023/01/15 19:05:11;;;;;;;;;;;;;;;7.93;100.00;98665.59;4958690;28;19922;-91
2023/01/15 19:07:37;;;;;;;;;;;;;;;7.93;100.00;98663.84;4973040;28;20340;-91
2023/01/15 19:10:02;;;;;;;;;;;;;;;7.93;100.00;98660.34;4973321;28;20016;-85
2023/01/15 19:12:27;;;;;;;;;;;;;;;7.95;100.00;98653.22;4970761;28;19918;-87
2023/01/15 19:20:21;;;;;;;;;;;;;;;7.98;100.00;98634.59;4974827;28;19925;-84
2023/01/15 19:22:59;;;;;;;;;;;;;;;7.98;100.00;98645.16;4973951;28;19922;-87
2023/01/15 19:25:26;;;;;;;;;;;;;;;8.01;100.00;98642.38;4963793;28;20069;-85
2023/01/15 19:27:52;;;;;;;;;;;;;;;8.01;100.00;98634.44;4975067;28;19918;-87
2023/01/15 19:30:18;;;;;;;;;;;;;;;8.01;100.00;98626.53;4972869;28;20387;-86
2023/01/15 19:32:43;;;;;;;;;;;;;;;8.01;100.00;98616.00;4993557;28;19918;-84
2023/01/15 19:35:08;;;;;;;;;;;;;;;8.03;100.00;98608.00;4974413;28;19918;-88
2023/01/15 19:37:38;;;;;;;;;;;;;;;8.05;100.00;98617.53;4973394;28;19965;-88
2023/01/15 19:40:03;;;;;;;;;;;;;;;8.05;100.00;98616.69;4974583;28;20017;-88
2023/01/15 19:50:43;;;;;;;;;;;;;;;8.08;100.00;98592.78;4974511;28;19968;-88
2023/01/15 19:53:09;;;;;;;;;;;;;;;8.07;100.00;98583.16;4973292;28;20413;-88
2023/01/15 19:55:36;;;;;;;;;;;;;;;8.07;100.00;98576.06;4973913;28;20069;-86
2023/01/15 19:58:03;;;;;;;;;;;;;;;8.08;100.00;98575.16;4973475;28;19922;-86
2023/01/15 20:00:29;;;;;;;;;;;;;;;8.12;100.00;98571.44;4969581;28;19929;-86
2023/01/15 20:02:55;;;;;;;;;;;;;;;8.15;100.00;98565.13;4971748;28;19922;-85
2023/01/15 20:05:20;;;;;;;;;;;;;;;8.21;100.00;98563.97;4974011;28;19922;-86
2023/01/15 20:07:45;;;;;;;;;;;;;;;8.21;100.00;98558.69;4972635;28;20455;-86
2023/01/15 20:10:12;;;;;;;;;;;;;;;8.19;100.00;98556.97;4973730;28;19922;-87
2023/01/15 20:15:21;;;;;;;;;;;;;;;8.18;100.00;98557.94;4973953;28;20052;-86
2023/01/15 20:17:47;;;;;;;;;;;;;;;8.19;100.00;98549.06;4973928;28;20017;-84
2023/01/15 20:20:12;;;;;;;;;;;;;;;8.22;100.00;98544.53;4956824;28;19925;-85
2023/01/15 20:22:41;;;;;;;;;;;;;;;8.24;100.00;98535.63;4953580;28;20477;-88
2023/01/15 20:25:06;;;;;;;;;;;;;;;8.26;100.00;98535.53;4958396;28;19925;-86
2023/01/15 20:27:35;;;;;;;;;;;;;;;8.26;100.00;98541.66;4974022;28;19930;-89
2023/01/15 20:30:07;;;;;;;;;;;;;;;8.27;100.00;98529.34;4973902;28;19922;-89
2023/01/15 20:32:33;;;;;;;;;;;;;;;8.29;100.00;98524.81;4973390;28;19976;-85
2023/01/15 20:34:58;;;;;;;;;;;;;;;8.30;100.00;98521.25;4974361;28;19926;-88
2023/01/15 20:37:23;;;;;;;;;;;;;;;8.33;100.00;98529.00;4955538;28;19995;-84
2023/01/15 20:39:49;;;;;;;;;;;;;;;8.32;100.00;98540.50;4967617;28;19926;-86
2023/01/15 20:45:01;;;;;;;;;;;;;;;8.33;100.00;98527.22;4973965;28;19925;-85
2023/01/15 20:50:12;;;;;;;;;;;;;;;8.35;100.00;98503.38;4973862;28;19976;-85
2023/01/15 20:52:37;;;;;;;;;;;;;;;8.41;100.00;98513.63;4987294;28;20377;-84
2023/01/15 20:55:06;;;;;;;;;;;;;;;8.40;100.00;98509.25;4973186;28;19922;-88
2023/01/15 20:57:36;;;;;;;;;;;;;;;8.41;100.00;98508.34;4973480;28;19985;-86
2023/01/15 21:00:03;;;;;;;;;;;;;;;8.37;100.00;98504.97;4956529;28;19918;-84
2023/01/15 21:02:28;;;;;;;;;;;;;;;8.39;100.00;98501.41;4988633;28;20358;-85
2023/01/15 21:04:54;;;;;;;;;;;;;;;8.37;100.00;98496.22;4972120;28;19925;-85
2023/01/15 21:07:19;;;;;;;;;;;;;;;8.39;100.00;98494.34;4970933;28;20362;-84
2023/01/15 21:09:44;;;;;;;;;;;;;;;8.41;100.00;98494.25;4973516;28;19926;-86
2023/01/15 21:12:09;;;;;;;;;;;;;;;8.41;100.00;98487.22;4956051;28;19918;-86
2023/01/15 21:14:35;;;;;;;;;;;;;;;8.41;100.00;98489.84;4972365;28;19918;-86
2023/01/15 21:17:00;;;;;;;;;;;;;;;8.42;100.00;98490.69;4972137;28;19926;-87
2023/01/15 21:19:25;;;;;;;;;;;;;;;8.44;100.00;98473.00;4971897;28;19918;-91
2023/01/15 21:21:50;;;;;;;;;;;;;;;8.41;100.00;98462.59;4975266;28;20009;-88
2023/01/15 21:24:16;;;;;;;;;;;;;;;8.42;100.00;98465.13;4959106;28;19925;-89
2023/01/15 21:26:41;;;;;;;;;;;;;;;8.43;100.00;98463.38;4977115;28;20332;-84
2023/01/15 21:29:06;;;;;;;;;;;;;;;8.41;100.00;98455.53;4975257;28;20454;-83
2023/01/15 21:31:31;;;;;;;;;;;;;;;8.42;100.00;98441.38;4962055;28;19922;-89
2023/01/15 21:33:57;;;;;;;;;;;;;;;8.42;100.00;98451.94;4994352;28;19922;-85
2023/01/15 21:36:23;;;;;;;;;;;;;;;8.43;100.00;98437.84;4959492;28;19925;-87
2023/01/15 21:38:53;;;;;;;;;;;;;;;8.44;100.00;98439.56;4958397;28;19925;-85
2023/01/15 21:41:19;;;;;;;;;;;;;;;8.47;100.00;98433.25;4991906;28;19925;-85
2023/01/15 21:46:28;;;;;;;;;;;;;;;8.46;100.00;98448.25;4977062;28;19925;-91
2023/01/15 21:48:54;;;;;;;;;;;;;;;8.46;100.00;98437.69;4975665;28;19918;-89
2023/01/15 21:51:19;;;;;;;;;;;;;;;8.46;100.00;98437.69;4992377;28;19922;-90
2023/01/15 21:53:45;;;;;;;;;;;;;;;8.47;100.00;98435.88;4975311;28;20005;-88
2023/01/15 21:56:10;;;;;;;;;;;;;;;8.47;100.00;98430.59;4976591;28;19925;-91
2023/01/15 21:58:36;;;;;;;;;;;;;;;8.47;100.00;98423.56;4975387;28;19918;-85
2023/01/15 22:01:06;;;;;;;;;;;;;;;8.48;100.00;98413.84;4976267;28;19918;-85
2023/01/15 22:03:31;;;;;;;;;;;;;;;8.50;100.00;98406.69;4976528;28;20013;-84
2023/01/15 22:06:00;;;;;;;;;;;;;;;8.52;100.00;98410.06;4976327;28;20016;-84
2023/01/15 22:08:26;;;;;;;;;;;;;;;8.50;100.00;98397.00;4957263;28;19918;-85
2023/01/15 22:10:52;;;;;;;;;;;;;;;8.29;100.00;98401.63;4975044;28;19924;-84
2023/01/15 22:13:17;;;;;;;;;;;;;;;6.84;100.00;98397.81;4975139;28;19918;-84
2023/01/15 22:15:42;;;;;;;;;;;;;;;6.25;100.00;98400.63;4976069;28;20346;-84
2023/01/15 22:18:07;;;;;;;;;;;;;;;6.02;100.00;98401.72;4974496;28;19922;-85
2023/01/15 22:20:59;;;;;;;;;;;;;;;5.79;100.00;98400.09;4975270;28;19922;-85
